< < Back
Terminal Aerodrome Forecast


Current Version              Previous Versions:   1  2  3  4  5  6  7  8  9  

Terminal Aerodrome Forecast

002
FTUS42 KMLB 171500 AAA
TAFMCO
TAF AMD
KMCO 171503Z 1715/1812 27008KT P6SM BKN080
     FM171800 28012KT P6SM VCTS SCT030CB BKN060
     FM180000 29004KT P6SM VCSH BKN040 OVC080=



Latest METAR

130
SAUS70 KWBC 180100 RRL
MTRMCO
METAR KMCO 180053Z 18004KT 10SM FEW250 24/23 A2990 RMK AO2 SLP124
T02390228


USA.gov is the U.S. government's official web portal to all federal, state and local government web resources and services.